Terminal Aerodrome Forecast
Issued by NWS

Home | Current Version | Previous Version | Text Only | Print | Product List | Glossary Off
Versions: 1 2 3 4 5 6 7 8 9 10 11 12 13 14 15 16 17 18 19 20 21 22 23 24 25 26 27 28 29 30 31 32 33 34

000
FTUS41 KGYX 282000 AAB
TAFRKD
TAF AMD
KRKD 282053Z 2821/2918 14010G20KT 5SM BR SCT005 BKN100
     FM282300 15010KT 1 1/2SM SHRA BR VCTS BKN005 OVC015CB
     FM290400 20008KT 1 1/2SM -SHRA BR OVC005
     FM290600 25005KT 1/4SM FG VV001
     FM291200 25005KT 4SM BR SCT005 BKN040
     FM291300 27010KT P6SM BKN040
      AMD LTD TO CLD VIS AND WIND=

USA.gov is the U.S. government's official web portal to all federal, state and local government web resources and services.